Time;durP1;ratioP1;P1;durP2;ratioP2;P2;SDS_P1;SDS_P2;PMS_P1;PMS_P2;Temp;Humidity;BMP_temperature;BMP_pressure;BME280_temperature;BME280_humidity;BME280_pressure;Samples;Min_cycle;Max_cycle;Signal;HPM_P1;HPM_P2
2023/07/09 00:00:58;;;;;;;0.00;0.00;;;;;;;23.69;100.00;101620.56;4994867;28;19935;-77
2023/07/09 00:03:23;;;;;;;0.00;0.00;;;;;;;23.67;100.00;101617.22;5007755;28;20726;-77
2023/07/09 00:05:49;;;;;;;0.00;0.00;;;;;;;23.64;100.00;101615.84;5013362;28;20032;-76
2023/07/09 00:08:34;;;;;;;0.00;0.00;;;;;;;23.65;100.00;101624.91;4997070;28;20553;-77
2023/07/09 00:11:00;;;;;;;0.00;0.00;;;;;;;23.69;100.00;101626.03;5008045;28;20077;-75
2023/07/09 00:13:27;;;;;;;0.00;0.00;;;;;;;23.74;100.00;101634.41;4994681;28;20481;-76
2023/07/09 00:15:55;;;;;;;0.00;0.00;;;;;;;23.76;100.00;101648.75;5000242;28;20353;-77
2023/07/09 00:18:20;;;;;;;0.00;0.00;;;;;;;23.75;100.00;101647.09;4996334;28;20503;-77
2023/07/09 00:20:48;;;;;;;0.00;0.00;;;;;;;23.71;100.00;101639.56;5013712;28;20121;-77
2023/07/09 00:23:13;;;;;;;0.00;0.00;;;;;;;23.63;100.00;101638.06;5014502;28;20148;-77
2023/07/09 00:25:41;;;;;;;0.00;0.00;;;;;;;23.57;100.00;101639.06;5012224;28;20049;-77
2023/07/09 00:28:12;;;;;;;0.00;0.00;;;;;;;23.54;100.00;101643.13;5014086;28;20096;-77
2023/07/09 00:30:38;;;;;;;0.00;0.00;;;;;;;23.52;100.00;101647.22;5012568;28;20424;-77
2023/07/09 00:33:04;;;;;;;0.00;0.00;;;;;;;23.43;100.00;101644.03;5013490;28;20049;-77
2023/07/09 00:35:30;;;;;;;0.00;0.00;;;;;;;23.39;100.00;101643.69;5010217;28;20083;-77
2023/07/09 00:38:00;;;;;;;0.00;0.00;;;;;;;23.36;100.00;101646.13;4995479;28;20095;-77
2023/07/09 00:40:26;;;;;;;0.00;0.00;;;;;;;23.32;100.00;101648.50;5013920;28;20029;-77
2023/07/09 00:42:54;;;;;;;0.00;0.00;;;;;;;23.29;100.00;101642.69;5017857;28;20025;-76
2023/07/09 00:45:21;;;;;;;0.00;0.00;;;;;;;23.26;100.00;101644.03;5001615;28;20037;-76
2023/07/09 00:48:01;;;;;;;0.00;0.00;;;;;;;23.20;100.00;101637.59;4995723;28;20050;-77
2023/07/09 00:50:34;;;;;;;0.00;0.00;;;;;;;23.16;100.00;101632.84;4996427;28;20389;-77
2023/07/09 00:53:07;;;;;;;0.00;0.00;;;;;;;23.10;100.00;101626.44;5016825;28;20049;-76
2023/07/09 00:55:33;;;;;;;0.00;0.00;;;;;;;23.08;100.00;101625.00;5010684;28;20033;-76
2023/07/09 00:58:03;;;;;;;0.00;0.00;;;;;;;23.00;100.00;101621.56;5007959;28;20044;-76
2023/07/09 01:00:42;;;;;;;0.00;0.00;;;;;;;22.97;100.00;101635.81;5005291;28;20053;-77
2023/07/09 01:03:10;;;;;;;0.00;0.00;;;;;;;22.97;100.00;101634.97;4996999;28;20417;-77
2023/07/09 01:05:36;;;;;;;0.00;0.00;;;;;;;22.98;100.00;101642.94;4996404;28;20037;-77
2023/07/09 01:08:01;;;;;;;0.00;0.00;;;;;;;22.97;100.00;101641.28;5013776;28;20179;-77
2023/07/09 01:10:28;;;;;;;0.00;0.00;;;;;;;22.99;100.00;101644.63;5013452;28;20126;-77
2023/07/09 01:12:53;;;;;;;0.00;0.00;;;;;;;23.02;100.00;101651.53;5013937;28;20590;-77
2023/07/09 01:15:18;;;;;;;0.00;0.00;;;;;;;22.98;100.00;101647.59;5013278;28;20069;-76
2023/07/09 01:17:44;;;;;;;0.00;0.00;;;;;;;22.91;100.00;101647.75;4977486;28;20481;-76
2023/07/09 01:20:16;;;;;;;0.00;0.00;;;;;;;22.91;100.00;101655.16;4993745;28;20022;-75
2023/07/09 01:22:41;;;;;;;0.00;0.00;;;;;;;22.92;100.00;101654.88;4983196;28;20055;-76
2023/07/09 01:25:07;;;;;;;0.10;0.00;;;;;;;22.93;100.00;101659.31;5013429;28;20474;-76
2023/07/09 01:27:41;;;;;;;0.00;0.00;;;;;;;22.96;100.00;101668.94;5013468;28;20034;-76
2023/07/09 01:30:16;;;;;;;0.00;0.00;;;;;;;22.96;100.00;101666.19;5016867;28;20041;-76
2023/07/09 01:32:45;;;;;;;0.00;0.00;;;;;;;22.99;100.00;101672.09;5014295;28;20496;-76
2023/07/09 01:35:13;;;;;;;0.00;0.00;;;;;;;23.02;100.00;101676.25;5013670;28;20033;-77
2023/07/09 01:37:38;;;;;;;0.00;0.00;;;;;;;23.03;100.00;101688.88;5011546;28;20110;-77
2023/07/09 01:40:06;;;;;;;0.00;0.00;;;;;;;23.04;100.00;101695.22;4994328;28;20117;-77
2023/07/09 01:42:32;;;;;;;0.00;0.00;;;;;;;22.99;100.00;101687.72;5004616;28;20026;-77
2023/07/09 01:44:57;;;;;;;0.03;0.00;;;;;;;22.98;100.00;101686.88;5014364;28;20045;-77
2023/07/09 01:47:24;;;;;;;0.00;0.00;;;;;;;22.97;100.00;101692.63;5013317;28;20026;-77
2023/07/09 01:49:57;;;;;;;0.00;0.00;;;;;;;22.95;100.00;101679.09;5012592;28;20449;-77
2023/07/09 01:52:24;;;;;;;0.00;0.00;;;;;;;22.94;100.00;101688.41;5013106;28;20045;-77
2023/07/09 01:54:49;;;;;;;0.10;0.00;;;;;;;22.88;100.00;101680.31;5013059;28;20017;-77
2023/07/09 01:57:22;;;;;;;0.00;0.00;;;;;;;22.81;100.00;101674.16;5013457;28;20473;-77
2023/07/09 01:59:49;;;;;;;0.00;0.00;;;;;;;22.76;100.00;101683.09;5017510;28;20092;-77
2023/07/09 02:02:20;;;;;;;0.00;0.00;;;;;;;22.76;100.00;101677.63;5016970;28;20129;-77
2023/07/09 02:04:50;;;;;;;0.00;0.00;;;;;;;22.77;100.00;101687.50;5017755;28;20318;-77
2023/07/09 02:07:16;;;;;;;0.00;0.00;;;;;;;22.77;100.00;101691.06;5017374;28;20377;-77
2023/07/09 02:09:42;;;;;;;0.00;0.00;;;;;;;22.76;100.00;101689.41;5017577;28;20033;-77
2023/07/09 02:12:09;;;;;;;0.00;0.00;;;;;;;22.77;100.00;101679.28;5017529;28;20018;-77
2023/07/09 02:14:35;;;;;;;0.00;0.00;;;;;;;22.74;100.00;101679.75;5010115;28;20021;-77
2023/07/09 02:17:00;;;;;;;0.00;0.00;;;;;;;22.72;100.00;101676.44;5017732;28;20487;-76
2023/07/09 02:19:25;;;;;;;0.00;0.00;;;;;;;22.74;100.00;101679.75;5019712;28;20038;-76
2023/07/09 02:21:51;;;;;;;0.00;0.00;;;;;;;22.72;100.00;101676.44;5017538;28;20156;-76
2023/07/09 02:24:16;;;;;;;0.00;0.00;;;;;;;22.69;100.00;101674.16;5016933;28;20040;-76
2023/07/09 02:26:41;;;;;;;0.00;0.00;;;;;;;22.66;100.00;101677.41;5015931;28;20037;-76
2023/07/09 02:29:07;;;;;;;0.00;0.00;;;;;;;22.69;100.00;101680.47;5017276;28;20034;-76
2023/07/09 02:31:33;;;;;;;0.00;0.00;;;;;;;22.70;100.00;101678.59;5007186;28;20099;-76
2023/07/09 02:33:59;;;;;;;0.00;0.00;;;;;;;22.72;100.00;101676.44;5016764;28;20037;-76
2023/07/09 02:36:24;;;;;;;0.00;0.00;;;;;;;22.70;100.00;101682.19;5017218;28;20034;-76
2023/07/09 02:38:50;;;;;;;0.00;0.00;;;;;;;22.70;100.00;101673.13;5002049;28;20037;-76
2023/07/09 02:41:15;;;;;;;0.00;0.00;;;;;;;22.67;100.00;101676.31;5017351;28;20045;-77
2023/07/09 02:43:41;;;;;;;0.00;0.00;;;;;;;22.65;100.00;101682.06;5017629;28;20034;-77
2023/07/09 02:46:06;;;;;;;0.00;0.00;;;;;;;22.61;100.00;101683.59;5017425;28;20109;-78
2023/07/09 02:48:31;;;;;;;0.00;0.00;;;;;;;22.58;100.00;101682.19;5016975;28;20022;-77
2023/07/09 02:50:57;;;;;;;0.00;0.00;;;;;;;22.57;100.00;101685.19;5016119;28;20457;-77
2023/07/09 02:53:22;;;;;;;0.00;0.00;;;;;;;22.52;100.00;101683.16;5016173;28;20030;-77
2023/07/09 02:55:48;;;;;;;0.00;0.00;;;;;;;22.48;100.00;101681.97;5016818;28;20477;-76
2023/07/09 02:58:13;;;;;;;0.00;0.00;;;;;;;22.44;100.00;101689.03;5017238;28;20052;-76
2023/07/09 03:00:38;;;;;;;0.00;0.00;;;;;;;22.39;100.00;101686.16;5018749;28;20373;-77
2023/07/09 03:03:04;;;;;;;0.00;0.00;;;;;;;22.36;100.00;101689.38;5003117;28;20106;-76
2023/07/09 03:05:29;;;;;;;0.00;0.00;;;;;;;22.28;100.00;101695.25;5012713;28;20050;-76
2023/07/09 03:07:54;;;;;;;0.00;0.00;;;;;;;22.21;100.00;101702.75;4998836;28;20030;-76
2023/07/09 03:10:20;;;;;;;0.00;0.00;;;;;;;22.18;100.00;101704.03;5016137;28;20028;-77
2023/07/09 03:12:45;;;;;;;0.00;0.00;;;;;;;22.17;100.00;101709.72;5018916;28;20034;-76
2023/07/09 03:15:12;;;;;;;0.00;0.00;;;;;;;22.14;100.00;101708.31;5019543;28;20025;-76
2023/07/09 03:17:37;;;;;;;0.00;0.00;;;;;;;22.08;100.00;101710.09;5019917;28;20350;-77
2023/07/09 03:20:03;;;;;;;0.00;0.00;;;;;;;22.04;100.00;101719.88;5019015;28;20368;-77
2023/07/09 03:22:28;;;;;;;0.00;0.00;;;;;;;22.03;100.00;101712.72;5012627;28;20064;-76
2023/07/09 03:24:53;;;;;;;0.00;0.00;;;;;;;22.00;100.00;101718.66;5017585;28;20022;-77
2023/07/09 03:27:19;;;;;;;0.00;0.00;;;;;;;21.99;100.00;101722.50;4999959;28;20034;-77
2023/07/09 03:29:44;;;;;;;0.00;0.00;;;;;;;22.01;100.00;101720.34;5019374;28;20037;-77
2023/07/09 03:32:09;;;;;;;0.00;0.00;;;;;;;22.01;100.00;101720.34;5018680;28;20409;-77
2023/07/09 03:34:35;;;;;;;0.00;0.00;;;;;;;22.04;100.00;101730.03;5017439;28;20033;-77
2023/07/09 03:37:00;;;;;;;0.00;0.00;;;;;;;22.06;100.00;101723.19;5017039;28;20492;-77
2023/07/09 03:39:25;;;;;;;0.00;0.00;;;;;;;22.06;100.00;101712.22;5022752;28;20089;-77
2023/07/09 03:41:51;;;;;;;0.00;0.00;;;;;;;22.09;100.00;101711.78;5025690;28;20030;-76
2023/07/09 03:44:16;;;;;;;0.00;0.00;;;;;;;22.09;100.00;101706.28;5026694;28;20057;-77
2023/07/09 03:46:41;;;;;;;0.00;0.00;;;;;;;22.12;100.00;101708.56;5016238;28;20045;-77
2023/07/09 03:49:07;;;;;;;0.00;0.00;;;;;;;22.16;100.00;101699.84;5014852;28;20487;-77
2023/07/09 03:51:32;;;;;;;0.00;0.00;;;;;;;22.20;100.00;101703.84;5010158;28;20026;-77
2023/07/09 03:53:58;;;;;;;0.00;0.00;;;;;;;22.21;100.00;101692.59;4995273;28;20026;-77
2023/07/09 03:56:23;;;;;;;0.00;0.00;;;;;;;22.27;100.00;101701.78;5015047;28;20160;-77
2023/07/09 03:58:48;;;;;;;0.00;0.00;;;;;;;22.32;100.00;101696.41;5015238;28;20073;-77
2023/07/09 04:01:16;;;;;;;0.00;0.00;;;;;;;22.37;100.00;101691.03;5015870;28;20022;-77
2023/07/09 04:03:41;;;;;;;0.00;0.00;;;;;;;22.41;100.00;101692.25;5021501;28;20100;-77
2023/07/09 04:06:06;;;;;;;0.00;0.00;;;;;;;22.42;100.00;101682.94;5023486;28;20014;-77
2023/07/09 04:08:32;;;;;;;0.00;0.00;;;;;;;22.44;100.00;101689.03;5022700;28;20025;-77
2023/07/09 04:11:02;;;;;;;0.00;0.00;;;;;;;22.45;100.00;101682.44;5022969;28;20022;-77
2023/07/09 04:13:28;;;;;;;0.00;0.00;;;;;;;22.46;100.00;101681.38;5018672;28;20088;-77
2023/07/09 04:15:54;;;;;;;0.00;0.00;;;;;;;22.45;100.00;101692.59;5023672;28;20038;-76
2023/07/09 04:18:19;;;;;;;0.00;0.00;;;;;;;22.45;100.00;101695.34;5023686;28;20026;-76
2023/07/09 04:20:49;;;;;;;0.00;0.00;;;;;;;22.35;100.00;101698.66;5023670;28;20497;-76
2023/07/09 04:23:15;;;;;;;0.00;0.00;;;;;;;22.34;100.00;101706.06;5003506;28;20033;-77
2023/07/09 04:25:40;;;;;;;0.00;0.00;;;;;;;22.35;100.00;101706.91;5022198;28;20189;-77
2023/07/09 04:28:05;;;;;;;0.00;0.00;;;;;;;22.36;100.00;101705.84;5019664;28;20033;-77
2023/07/09 04:30:31;;;;;;;0.00;0.00;;;;;;;22.38;100.00;101711.06;5014816;28;20458;-77
2023/07/09 04:32:57;;;;;;;0.00;0.00;;;;;;;22.37;100.00;101710.25;5013199;28;20087;-77
2023/07/09 04:35:22;;;;;;;0.00;0.00;;;;;;;22.39;100.00;101710.84;5014164;28;20339;-77
2023/07/09 04:37:47;;;;;;;0.00;0.00;;;;;;;22.43;100.00;101708.44;5013865;28;20030;-77
2023/07/09 04:40:13;;;;;;;0.00;0.00;;;;;;;22.44;100.00;101713.72;5016107;28;20161;-76
2023/07/09 04:42:39;;;;;;;0.00;0.00;;;;;;;22.47;100.00;101706.91;5017397;28;20416;-76
2023/07/09 04:45:06;;;;;;;0.00;0.00;;;;;;;22.42;100.00;101710.38;5019449;28;20040;-76
2023/07/09 04:47:32;;;;;;;0.00;0.00;;;;;;;22.46;100.00;101717.06;5021141;28;20026;-77
2023/07/09 04:49:57;;;;;;;0.00;0.00;;;;;;;22.49;100.00;101713.81;5021110;28;20041;-77
2023/07/09 04:52:23;;;;;;;0.00;0.00;;;;;;;22.49;100.00;101722.06;5021621;28;20029;-77
2023/07/09 04:54:50;;;;;;;0.00;0.00;;;;;;;22.50;100.00;101725.63;5022883;28;20030;-77
2023/07/09 04:57:16;;;;;;;0.00;0.00;;;;;;;22.54;100.00;101724.91;5022038;28;20027;-78
2023/07/09 04:59:41;;;;;;;0.00;0.00;;;;;;;22.57;100.00;101738.13;5021511;28;20029;-77
2023/07/09 05:02:07;;;;;;;0.00;0.00;;;;;;;22.55;100.00;101733.97;5003071;28;20036;-77
2023/07/09 05:04:33;;;;;;;0.00;0.00;;;;;;;22.61;100.00;101740.41;5006397;28;20022;-77
2023/07/09 05:06:58;;;;;;;0.00;0.00;;;;;;;22.68;100.00;101741.13;5021230;28;20036;-77
2023/07/09 05:09:24;;;;;;;0.00;0.00;;;;;;;22.75;100.00;101747.31;5001099;28;20073;-77
2023/07/09 05:11:51;;;;;;;0.00;0.00;;;;;;;22.85;100.00;101742.00;5007226;28;20038;-76
2023/07/09 05:14:16;;;;;;;0.00;0.00;;;;;;;22.96;100.00;101734.81;5002475;28;20563;-76
2023/07/09 05:16:42;;;;;;;0.00;0.00;;;;;;;23.09;100.00;101736.50;5001388;28;20030;-77
2023/07/09 05:19:08;;;;;;;0.00;0.00;;;;;;;23.19;100.00;101733.94;5012572;28;20027;-77
2023/07/09 05:21:34;;;;;;;0.00;0.00;;;;;;;23.30;100.00;101727.59;5011017;28;20148;-77
2023/07/09 05:23:59;;;;;;;0.00;0.00;;;;;;;23.39;100.00;101717.88;5012442;28;20083;-76
2023/07/09 05:26:25;;;;;;;0.00;0.00;;;;;;;23.51;100.00;101716.97;5012101;28;20087;-77
2023/07/09 05:28:50;;;;;;;0.00;0.00;;;;;;;23.55;100.00;101718.16;5012798;28;20431;-77
2023/07/09 05:31:16;;;;;;;0.00;0.00;;;;;;;23.61;100.00;101717.97;5011701;28;20113;-76
2023/07/09 05:33:41;;;;;;;0.00;0.00;;;;;;;23.71;100.00;101717.34;5012331;28;20377;-77
2023/07/09 05:36:08;;;;;;;0.00;0.00;;;;;;;23.77;100.00;101713.63;5016550;28;20034;-77
2023/07/09 05:38:33;;;;;;;0.00;0.00;;;;;;;23.92;100.00;101706.72;4999245;28;20477;-77
2023/07/09 05:41:03;;;;;;;0.00;0.00;;;;;;;24.05;100.00;101707.22;5016091;28;20029;-77
2023/07/09 05:43:29;;;;;;;0.00;0.00;;;;;;;24.15;100.00;101703.78;5015448;28;20025;-76
2023/07/09 05:45:55;;;;;;;0.00;0.00;;;;;;;24.25;100.00;101698.44;5015582;28;20032;-76
2023/07/09 05:48:20;;;;;;;0.00;0.00;;;;;;;24.30;100.00;101692.16;5016126;28;20022;-77
2023/07/09 05:50:47;;;;;;;0.00;0.00;;;;;;;24.43;100.00;101691.78;5014093;28;20034;-77
2023/07/09 05:53:13;;;;;;;0.00;0.00;;;;;;;24.45;100.00;101699.84;5016110;28;20026;-78
2023/07/09 05:55:38;;;;;;;0.00;0.00;;;;;;;24.51;100.00;101694.16;5016130;28;20034;-77
2023/07/09 05:58:03;;;;;;;0.00;0.00;;;;;;;24.61;100.00;101695.38;5014603;28;20049;-77
2023/07/09 06:00:29;;;;;;;0.00;0.00;;;;;;;24.59;100.00;101701.13;5006204;28;20551;-77
2023/07/09 06:02:54;;;;;;;0.00;0.00;;;;;;;24.62;100.00;101702.53;5014782;28;20033;-77
2023/07/09 06:05:20;;;;;;;0.00;0.00;;;;;;;24.62;100.00;101692.38;5015855;28;20454;-77
2023/07/09 06:07:47;;;;;;;0.00;0.00;;;;;;;24.56;100.00;101695.31;5016075;28;20164;-76
2023/07/09 06:10:13;;;;;;;0.00;0.00;;;;;;;24.59;100.00;101703.88;5015900;28;20042;-76
2023/07/09 06:12:40;;;;;;;0.00;0.00;;;;;;;24.62;100.00;101702.53;5017146;28;20288;-77
2023/07/09 06:15:06;;;;;;;0.00;0.00;;;;;;;24.71;100.00;101699.09;5015859;28;20029;-76
2023/07/09 06:17:31;;;;;;;0.00;0.00;;;;;;;24.79;100.00;101702.47;5015168;28;20037;-76
2023/07/09 06:19:56;;;;;;;0.00;0.00;;;;;;;24.80;100.00;101704.13;5016971;28;20038;-76
2023/07/09 06:22:22;;;;;;;0.00;0.00;;;;;;;24.82;100.00;101710.22;5017231;28;20026;-76
2023/07/09 06:24:47;;;;;;;0.00;0.00;;;;;;;24.90;100.00;101705.09;5028041;28;20029;-76
2023/07/09 06:27:13;;;;;;;0.00;0.00;;;;;;;25.04;100.00;101704.69;5030066;28;20353;-75
2023/07/09 06:29:38;;;;;;;0.00;0.00;;;;;;;25.16;100.00;101710.94;5022981;28;20037;-76
2023/07/09 06:32:04;;;;;;;0.00;0.00;;;;;;;25.20;100.00;101717.59;5016010;28;20030;-77
2023/07/09 06:34:29;;;;;;;0.00;0.00;;;;;;;25.35;100.00;101720.50;5014075;28;20064;-76
2023/07/09 06:36:56;;;;;;;0.00;0.00;;;;;;;25.55;100.00;101719.88;5014837;28;20037;-77
2023/07/09 06:39:21;;;;;;;0.00;0.00;;;;;;;25.73;98.81;101726.13;5013933;28;20073;-76
2023/07/09 06:41:47;;;;;;;0.00;0.00;;;;;;;25.83;99.56;101737.22;5014016;28;20201;-76
2023/07/09 06:44:12;;;;;;;0.00;0.00;;;;;;;25.93;99.83;101742.84;5013436;28;20034;-77
2023/07/09 06:46:37;;;;;;;0.00;0.00;;;;;;;26.00;98.51;101737.94;5014334;28;20037;-77
2023/07/09 06:49:05;;;;;;;0.00;0.00;;;;;;;26.05;99.53;101740.75;5014592;28;20141;-77
2023/07/09 06:51:30;;;;;;;0.00;0.00;;;;;;;26.16;99.19;101743.59;5014482;28;20131;-77
2023/07/09 06:53:56;;;;;;;0.00;0.00;;;;;;;26.16;99.54;101741.66;5014928;28;20140;-76
2023/07/09 06:56:21;;;;;;;0.10;0.00;;;;;;;26.09;100.00;101757.59;5014997;28;20180;-77
2023/07/09 06:58:47;;;;;;;0.00;0.00;;;;;;;26.30;100.00;101747.53;5014836;28;20058;-76
2023/07/09 07:01:12;;;;;;;0.00;0.00;;;;;;;26.46;100.00;101752.09;5014851;28;20045;-77
2023/07/09 07:03:38;;;;;;;0.00;0.00;;;;;;;26.75;100.00;101759.16;5015352;28;20032;-76
2023/07/09 07:06:06;;;;;;;0.00;0.00;;;;;;;27.09;99.99;101762.34;5015364;28;20026;-77
2023/07/09 07:08:31;;;;;;;0.00;0.00;;;;;;;27.26;98.52;101759.41;5014744;28;20562;-77
2023/07/09 07:11:02;;;;;;;0.00;0.00;;;;;;;27.65;97.29;101757.00;5013591;28;20117;-76
2023/07/09 07:13:39;;;;;;;0.00;0.00;;;;;;;28.33;96.21;101758.66;5015857;28;20389;-76
2023/07/09 07:16:08;;;;;;;;;;;;;;;28.93;92.73;101756.03;5016555;28;20033;-77
2023/07/09 07:18:34;;;;;;;0.00;0.00;;;;;;;29.45;90.17;101749.94;5014899;28;19956;-77
2023/07/09 07:20:59;;;;;;;0.00;0.00;;;;;;;29.53;91.61;101746.56;5013995;28;20198;-77
2023/07/09 07:23:25;;;;;;;0.00;0.00;;;;;;;30.15;88.92;101743.31;5016261;28;20044;-77
2023/07/09 07:25:51;;;;;;;0.00;0.00;;;;;;;30.37;88.54;101738.13;5014693;28;20364;-78
2023/07/09 07:28:17;;;;;;;0.00;0.00;;;;;;;30.79;87.15;101744.03;5013974;28;20099;-77
2023/07/09 07:30:42;;;;;;;0.00;0.00;;;;;;;30.81;86.77;101737.09;5014507;28;20018;-77
2023/07/09 07:33:08;;;;;;;0.00;0.00;;;;;;;31.11;85.76;101734.19;4998611;28;20026;-78
2023/07/09 07:35:33;;;;;;;0.00;0.00;;;;;;;31.27;85.21;101732.84;5014349;28;20105;-76
2023/07/09 07:37:59;;;;;;;0.00;0.00;;;;;;;31.27;84.35;101739.22;5013716;28;20133;-77
2023/07/09 07:40:24;;;;;;;0.00;0.00;;;;;;;31.24;85.96;101739.84;5001178;28;20038;-78
2023/07/09 07:42:50;;;;;;;0.00;0.00;;;;;;;31.28;84.28;101731.72;5012055;28;20038;-78
2023/07/09 07:45:16;;;;;;;0.10;0.00;;;;;;;31.67;83.10;101725.03;5014876;28;21787;-78
2023/07/09 07:47:42;;;;;;;0.00;0.00;;;;;;;31.46;82.86;101730.09;5007013;28;20034;-78
2023/07/09 07:50:08;;;;;;;0.00;0.00;;;;;;;31.55;82.55;101731.06;5002030;28;20415;-78
2023/07/09 07:52:37;;;;;;;0.00;0.00;;;;;;;31.69;83.04;101740.28;5012903;28;20030;-77
2023/07/09 07:55:07;;;;;;;0.10;0.00;;;;;;;31.64;83.50;101734.81;5012797;28;20041;-78
2023/07/09 07:57:32;;;;;;;0.00;0.00;;;;;;;31.90;81.99;101732.41;5014316;28;20761;-77
2023/07/09 07:59:58;;;;;;;0.00;0.00;;;;;;;32.02;80.26;101737.56;5014298;28;20022;-78
2023/07/09 08:02:24;;;;;;;0.00;0.00;;;;;;;32.16;79.31;101739.53;5014464;28;20048;-77
2023/07/09 08:04:50;;;;;;;0.00;0.00;;;;;;;32.27;79.12;101735.41;5013716;28;20112;-77
2023/07/09 08:07:17;;;;;;;0.00;0.00;;;;;;;32.50;78.57;101734.44;5014023;28;20018;-77
2023/07/09 08:09:42;;;;;;;0.00;0.00;;;;;;;32.69;76.37;101739.09;4995002;28;20041;-77
2023/07/09 08:12:11;;;;;;;0.00;0.00;;;;;;;32.00;79.61;101717.53;5011088;28;20026;-77
2023/07/09 08:14:37;;;;;;;0.00;0.00;;;;;;;31.47;81.60;101726.19;5006724;28;20426;-76
2023/07/09 08:17:03;;;;;;;0.00;0.00;;;;;;;30.77;82.80;101724.88;5013346;28;20041;-77
2023/07/09 08:19:28;;;;;;;0.00;0.00;;;;;;;30.28;84.30;101723.22;5014309;28;20045;-78
2023/07/09 08:21:54;;;;;;;0.00;0.00;;;;;;;29.67;87.10;101724.56;5016929;28;20524;-77
2023/07/09 08:24:19;;;;;;;0.00;0.00;;;;;;;29.41;89.04;101715.59;5014047;28;20034;-77
2023/07/09 08:26:44;;;;;;;0.00;0.00;;;;;;;29.17;91.05;101731.25;5012476;28;20119;-76
2023/07/09 08:29:10;;;;;;;0.00;0.00;;;;;;;29.26;90.82;101740.66;5011576;28;20054;-77
2023/07/09 08:31:35;;;;;;;0.00;0.00;;;;;;;29.62;90.17;101743.16;5004527;28;20045;-77
2023/07/09 08:34:01;;;;;;;0.00;0.00;;;;;;;30.05;90.60;101740.66;5000278;28;20088;-77
2023/07/09 08:36:27;;;;;;;0.00;0.00;;;;;;;30.10;88.61;101754.47;5013810;28;20041;-78
2023/07/09 08:38:52;;;;;;;0.00;0.00;;;;;;;29.92;90.44;101759.63;5005868;28;20073;-77
2023/07/09 08:41:17;;;;;;;0.00;0.00;;;;;;;30.38;90.10;101748.09;5013952;28;20037;-77
2023/07/09 08:44:22;;;;;;;0.00;0.00;;;;;;;31.57;86.17;101737.16;5017738;28;20038;-78
2023/07/09 08:47:20;;;;;;;0.00;0.00;;;;;;;32.45;82.28;101742.88;4994377;28;20053;-77
2023/07/09 08:50:08;;;;;;;0.00;0.00;;;;;;;32.63;79.61;101757.06;4997793;28;20064;-76
2023/07/09 08:52:42;;;;;;;0.00;0.00;;;;;;;32.50;82.74;101770.66;4994587;28;20034;-77
2023/07/09 08:55:19;;;;;;;0.00;0.00;;;;;;;32.40;80.19;101770.84;4999643;28;20046;-76
2023/07/09 08:57:52;;;;;;;0.00;0.00;;;;;;;32.75;79.31;101771.28;4988669;28;20062;-77
2023/07/09 09:00:27;;;;;;;0.00;0.00;;;;;;;32.84;79.70;101780.59;4994752;28;20028;-78
2023/07/09 09:02:56;;;;;;;0.00;0.00;;;;;;;32.79;76.69;101775.13;4998371;28;20030;-76
2023/07/09 09:05:23;;;;;;;0.00;0.00;;;;;;;33.06;76.92;101768.72;5002743;28;20064;-76
2023/07/09 09:07:54;;;;;;;0.00;0.00;;;;;;;33.62;74.05;101755.47;5006871;28;20028;-76
2023/07/09 09:10:46;;;;;;;0.00;0.00;;;;;;;32.91;74.97;101741.13;5026203;28;20048;-77
2023/07/09 09:13:15;;;;;;;0.00;0.00;;;;;;;33.53;74.63;101747.00;5004417;28;20030;-78
2023/07/09 09:15:51;;;;;;;0.00;0.00;;;;;;;33.91;71.65;101754.19;5002251;28;20022;-77
2023/07/09 09:18:21;;;;;;;0.00;0.00;;;;;;;33.77;70.90;101741.13;4985624;28;20458;-79
2023/07/09 09:20:52;;;;;;;0.00;0.00;;;;;;;33.04;73.51;101728.34;5017547;28;20408;-78
2023/07/09 09:23:18;;;;;;;0.00;0.00;;;;;;;32.69;75.32;101716.78;5013053;28;20034;-79
2023/07/09 09:25:55;;;;;;;0.00;0.00;;;;;;;32.67;76.96;101730.22;5000262;28;20033;-78
2023/07/09 09:28:22;;;;;;;0.00;0.00;;;;;;;32.75;77.42;101716.34;4999502;28;20033;-77
2023/07/09 09:30:48;;;;;;;0.00;0.00;;;;;;;32.75;76.41;101732.25;5004754;28;20437;-79
2023/07/09 09:33:17;;;;;;;0.00;0.00;;;;;;;32.77;75.53;101725.25;5005989;28;20022;-76
2023/07/09 09:35:44;;;;;;;0.00;0.00;;;;;;;33.15;72.44;101738.09;5009233;28;20117;-77
2023/07/09 09:38:16;;;;;;;0.00;0.00;;;;;;;33.62;71.53;101749.88;5004059;28;20022;-77
2023/07/09 09:40:41;;;;;;;0.00;0.00;;;;;;;33.09;73.42;101753.31;5004852;28;20032;-76
2023/07/09 09:43:15;;;;;;;0.00;0.00;;;;;;;33.03;74.28;101757.38;5003980;28;20022;-77
2023/07/09 09:45:43;;;;;;;0.00;0.00;;;;;;;32.57;75.08;101765.53;4999843;28;20445;-76
2023/07/09 09:48:41;;;;;;;0.00;0.00;;;;;;;32.23;78.72;101771.44;4991730;28;20523;-76
2023/07/09 09:51:06;;;;;;;0.00;0.00;;;;;;;32.02;79.62;101762.63;4976384;28;20041;-75
2023/07/09 09:53:47;;;;;;;0.00;0.00;;;;;;;32.98;75.50;101755.47;5009312;28;20022;-77
2023/07/09 09:56:18;;;;;;;0.00;0.00;;;;;;;33.32;76.00;101748.63;4987588;28;20113;-77
2023/07/09 09:58:44;;;;;;;0.00;0.00;;;;;;;34.31;70.76;101749.53;5018429;28;20054;-78
2023/07/09 10:01:17;;;;;;;0.00;0.00;;;;;;;34.62;66.75;101743.91;5010282;28;20036;-78
2023/07/09 10:03:44;;;;;;;0.00;0.00;;;;;;;34.67;68.10;101740.97;4996893;28;20019;-76
2023/07/09 10:06:12;;;;;;;0.00;0.00;;;;;;;34.78;69.49;101740.69;4993753;28;20052;-77
2023/07/09 10:08:49;;;;;;;0.00;0.00;;;;;;;34.53;67.40;101738.28;4995581;28;20026;-78
2023/07/09 10:11:17;;;;;;;0.00;0.00;;;;;;;34.65;66.15;101740.50;5002818;28;20124;-77
2023/07/09 10:13:44;;;;;;;0.00;0.00;;;;;;;35.20;65.79;101732.72;5012993;28;20080;-76
2023/07/09 10:16:31;;;;;;;0.00;0.00;;;;;;;35.35;63.62;101741.44;4995150;28;20060;-76
2023/07/09 10:18:59;;;;;;;0.00;0.00;;;;;;;34.75;65.63;101737.38;5012930;28;20080;-77
2023/07/09 10:21:34;;;;;;;0.00;0.00;;;;;;;34.09;67.25;101742.00;5016456;28;20076;-77
2023/07/09 10:24:12;;;;;;;0.00;0.00;;;;;;;33.83;69.82;101759.38;4998762;28;20385;-77
2023/07/09 10:26:44;;;;;;;0.00;0.00;;;;;;;33.97;69.98;101764.94;5015283;28;20022;-77
2023/07/09 10:29:34;;;;;;;0.00;0.00;;;;;;;33.97;67.53;101780.88;5003086;28;20394;-77
2023/07/09 10:32:20;;;;;;;0.00;0.00;;;;;;;33.92;70.65;101784.59;5002677;28;20031;-77
2023/07/09 10:35:10;;;;;;;0.00;0.00;;;;;;;33.49;72.40;101773.88;4982911;28;20034;-76
2023/07/09 10:37:52;;;;;;;0.00;0.00;;;;;;;33.15;73.86;101769.66;4979755;28;20033;-77
2023/07/09 10:40:25;;;;;;;0.00;0.00;;;;;;;33.40;71.60;101781.34;4996359;28;20034;-77
2023/07/09 10:42:55;;;;;;;0.00;0.00;;;;;;;33.47;72.24;101792.06;4979630;28;20038;-77
2023/07/09 10:45:29;;;;;;;0.00;0.00;;;;;;;33.78;73.22;101797.78;4979408;28;20053;-78
2023/07/09 10:48:06;;;;;;;0.00;0.00;;;;;;;34.05;70.41;101796.84;4979354;28;20446;-77
2023/07/09 10:50:36;;;;;;;0.00;0.00;;;;;;;34.08;69.84;101791.47;4978758;28;20030;-77
2023/07/09 10:53:24;;;;;;;0.00;0.00;;;;;;;33.90;70.66;101795.25;4979892;28;20061;-77
2023/07/09 10:56:00;;;;;;;0.00;0.00;;;;;;;33.55;71.40;101788.59;4996645;28;20093;-77
2023/07/09 10:58:35;;;;;;;0.00;0.00;;;;;;;33.37;71.40;101788.38;4996351;28;20439;-77
2023/07/09 11:01:01;;;;;;;0.00;0.00;;;;;;;33.26;72.05;101791.72;4980468;28;20514;-77
2023/07/09 11:03:49;;;;;;;0.00;0.00;;;;;;;32.97;73.89;101790.09;4979947;28;20065;-76
2023/07/09 11:06:22;;;;;;;0.00;0.00;;;;;;;32.45;76.64;101790.25;4979318;28;20059;-77
2023/07/09 11:08:50;;;;;;;0.00;0.00;;;;;;;32.25;78.95;101796.19;4979035;28;20054;-77
2023/07/09 11:11:45;;;;;;;0.00;0.00;;;;;;;32.06;77.03;101794.28;4978680;28;20535;-77
2023/07/09 11:14:40;;;;;;;0.00;0.00;;;;;;;31.98;77.93;101792.19;4979876;28;20034;-76
2023/07/09 11:17:07;;;;;;;0.00;0.00;;;;;;;31.76;77.39;101781.66;4995747;28;20026;-78
2023/07/09 11:19:41;;;;;;;0.00;0.00;;;;;;;31.72;78.19;101783.38;4979274;28;20381;-78
2023/07/09 11:22:21;;;;;;;0.00;0.00;;;;;;;31.94;79.44;101793.94;5013261;28;20069;-77
2023/07/09 11:25:05;;;;;;;0.00;0.00;;;;;;;32.14;78.42;101810.28;5015980;28;20044;-76
2023/07/09 11:27:31;;;;;;;0.00;0.00;;;;;;;32.27;78.77;101832.91;5015444;28;20485;-77